This is the latest recevied weather packets stored in our database for station/object IU2PLZ-10. If no packets are shown the sender has not sent any weather packets the latest 10 day(s).
| Time | Temp. | Humidity | Pressure | Rain* | Wind** | Luminosity | Snow |
|---|---|---|---|---|---|---|---|
| 1778119411 | 19.44° C | 56% | 960.2 hPa | - | - | - | - |
| 1778118511 | 18.89° C | 56% | 959.5 hPa | - | - | - | - |
| 1778117610 | 18.89° C | 57% | 959.4 hPa | - | - | - | - |
| 1778116710 | 18.89° C | 58% | 959.6 hPa | - | - | - | - |
| 1778115810 | 18.89° C | 57% | 959.5 hPa | - | - | - | - |
| 1778114910 | 19.44° C | 56% | 960.1 hPa | - | - | - | - |
| 1778114010 | 20° C | 55% | 960.9 hPa | - | - | - | - |
| 1778113110 | 20° C | 55% | 961.3 hPa | - | - | - | - |
| 1778112209 | 20° C | 55% | 961.2 hPa | - | - | - | - |
| 1778111309 | 19.44° C | 55% | 960.4 hPa | - | - | - | - |
| 1778110409 | 19.44° C | 57% | 960.8 hPa | - | - | - | - |
| 1778109509 | 19.44° C | 57% | 961 hPa | - | - | - | - |
| 1778108609 | 19.44° C | 57% | 961.2 hPa | - | - | - | - |
| 1778107709 | 20° C | 57% | 962.1 hPa | - | - | - | - |
| 1778106809 | 18.89° C | 58% | 961.3 hPa | - | - | - | - |
| 1778105908 | 19.44° C | 58% | 962.2 hPa | - | - | - | - |
| 1778105008 | 19.44° C | 57% | 961.5 hPa | - | - | - | - |
| 1778104108 | 20° C | 55% | 961.8 hPa | - | - | - | - |
| 1778103208 | 19.44° C | 54% | 961 hPa | - | - | - | - |
| 1778102308 | 20° C | 52% | 961.8 hPa | - | - | - | - |
| 1778101407 | 20.56° C | 50% | 962 hPa | - | - | - | - |
| 1778100507 | 21.11° C | 49% | 962.4 hPa | - | - | - | - |
| 1778099607 | 21.11° C | 48% | 963 hPa | - | - | - | - |
| 1778098707 | 21.11° C | 47% | 962.8 hPa | - | - | - | - |
| 1778097807 | 21.67° C | 47% | 962.6 hPa | - | - | - | - |
* Rain since midnight (hover to see other rain measurements)
** Current wind speed in m/s (hover to see current wind gust speed)